帯広 の空港の天気 - METARとTAF

帯広空港 ( RJCB / OBO ) - 北海道帯広市
飛行場実況気象(Metar)
観測時間06/02 07:40 JST (06/01 22:40 UTC)
風向・風速北北東 2m/s
視程8000m
天気現象
少しの雲 雲底高度 120m
全天の8割程度の雲 雲底高度 180m
気温15℃
湿度88%
気圧1005hPa
METARRJCB 012240Z 03003KT 340V140 8000 FEW004 BKN006 15/13 Q1005 RMK 1ST004 7ST006 A2968
過去の天気等 Google飛行場航空写真 Wunderground天気予報

過去48時間のMETAR

飛行場予報(TAF)
発表時間: 6/02 05:33 JST (6/01 20:33 UTC)
予報対象時間: 2日5時 JST ~ 3日9時 JST
風向・風速南西 2m/s
視程700m
天気現象
全天を覆う雲 鉛直視程 30m
2日9時 JST ~ 2日11時 JST に徐々に
視程10km以上
天気現象運行に影響にある天気現象が終了
少しの雲 雲底高度 180m
全天の8割程度の雲 雲底高度 610m
2日11時 JST ~ 2日13時 JST に徐々に
風向・風速西 3m/s
2日18時 JST ~ 2日21時 JST に徐々に
風向・風速南 3m/s
TAF AMD RJCB 012033Z 0120/0300 22004KT 0700 FG VV001
BECMG 0200/0202 9999 NSW FEW006 BKN020
BECMG 0202/0204 27005KT
BECMG 0209/0212 19005KT
日本の空港のMETAR・TAFへのリンク

RJTT 東京国際空港
RJAA 新東京国際空港
RJBB 関西国際空港
RJOO 大阪空港
RJGG 中部国際空港
RJCC 新千歳空港
RJFF 福岡空港
ROAH 那覇空港


RJEC 旭川空港
RJCH 函館空港
RJCK 釧路空港
RJCM 女満別空港
RJCB 帯広空港
RJSA 青森空港
RJSS 仙台空港
RJSK 秋田空港
RJSF 福島空港
RJAH 茨城空港
RJSN 新潟空港
RJNT 富山空港
RJNK 小松飛行場
RJNS 静岡空港
RJOH 美保飛行場
RJOC 出雲空港
RJOB 岡山空港
RJOA 広島空港
RJOI 岩国飛行場
RJOT 高松空港
RJOM 松山空港
RJOK 高知空港
RJFR 北九州空港
RJFT 熊本空港
RJFU 長崎空港
RJFS 佐賀空港
RJFO 大分空港
RJFM 宮崎空港
RJFK 鹿児島空港
ROIG 石垣島空港
RJTY 横田飛行場
ROTM 普天間飛行場
RODN 嘉手納飛行場